Zhoushuizi Airport
ZYTL : now visible

Airfield :











YOU CAN JOIN US ON...

 
LOGIN :

Register | Disclaimer

   EN    FR    IT 

 









Legend :    VFR   Marginal VFR   IFR   Intensive IFR   Very Intensive IFR
Visi :
Ceiling :
>= 8 km
>= 3000ft
5 to 8 km
1000 to 3000 ft
1500m to 5 km
500 to 1000 ft
800 to 1500m
200 to 500 ft
< 800m
< 200 ft
Symbols :   Thunderstorms  Fog  Heavy snow  Heavy precipitations  Wind > 20 kt






- Airport Elevation : 107 ft
- IATA code : DLC


ZYTL - Zhoushuizi

CURRENT METAR :
  • 200030Z 08004MPS CAVOK 13/08 Q1008 NOSIG

EXPIRED METARs :
  • 200000Z 09005MPS CAVOK 13/08 Q1008 NOSIG
  • 192330Z 10006MPS CAVOK 13/07 Q1008 NOSIG
  • 192300Z 08003MPS 040V100 CAVOK 12/07 Q1007 NOSIG
  • 192230Z 09004MPS CAVOK 12/07 Q1008 NOSIG
  • 192200Z 10004MPS CAVOK 12/07 Q1008 NOSIG
  • 192130Z 11003MPS CAVOK 12/08 Q1007 NOSIG
  • 192100Z 10003MPS 060V130 8000 NSC 11/08 Q1007 NOSIG
  • 192030Z 14002MPS 7000 NSC 12/08 Q1006 NOSIG

TAF TAF ZYTL
Valid from the 20 at 00:00 until the 21 at 00:00 UTC


192108Z 2000/2024 12004MPS 5000 BR FEW033 TX18/2006Z TN11/2021Z
ZYSH FIR / Asia



MET'MAP, your aeronautical weather chart ! - Copyright ORBIFLY December 2007 - Disclaimer

ORBIFLY MET'MAP TEAM :

Programming & Development : Alexandra Zaïnal
Original concept : Baudouin d'Aumeries
Technical & hardware support : Manuel Goepfert
Assistance : Marc-Olivier Méhu




SOURCES & CREDITS :

   NOAA       Earth
Advisory